Time;durP1;ratioP1;P1;durP2;ratioP2;P2;SDS_P1;SDS_P2;PMS_P1;PMS_P2;Temp;Humidity;BMP_temperature;BMP_pressure;BME280_temperature;BME280_humidity;BME280_pressure;Samples;Min_cycle;Max_cycle;Signal;HPM_P1;HPM_P2
2022/11/26 00:01:40;;;;;;;;;;;;;;;5.18;76.69;101337.09;4877957;29;1671;-95
2022/11/26 00:04:07;;;;;;;;;;;;;;;5.29;76.42;101330.56;4887086;29;1432;-95
2022/11/26 00:06:33;;;;;;;;;;;;;;;5.33;76.34;101340.78;4886173;29;1488;-94
2022/11/26 00:09:03;;;;;;;;;;;;;;;5.27;76.34;101332.59;4886221;29;1822;-95
2022/11/26 00:11:33;;;;;;;;;;;;;;;5.17;76.81;101338.91;4883077;29;1971;-94
2022/11/26 00:14:00;;;;;;;;;;;;;;;5.23;76.43;101342.75;4875221;29;1065;-93
2022/11/26 00:16:27;;;;;;;;;;;;;;;5.30;76.47;101343.78;4899229;29;1919;-95
2022/11/26 00:18:54;;;;;;;;;;;;;;;5.13;76.89;101337.56;4886189;29;1635;-95
2022/11/26 00:21:21;;;;;;;;;;;;;;;5.11;77.02;101334.22;4886713;29;1462;-94
2022/11/26 00:23:48;;;;;;;;;;;;;;;5.08;77.05;101336.41;4867476;29;1189;-95
2022/11/26 00:26:15;;;;;;;;;;;;;;;5.09;77.01;101338.06;4879171;29;1457;-94
2022/11/26 00:28:42;;;;;;;;;;;;;;;5.08;77.10;101342.56;4879678;29;1855;-95
2022/11/26 00:31:09;;;;;;;;;;;;;;;5.06;77.06;101338.38;4863213;29;1092;-95
2022/11/26 00:33:35;;;;;;;;;;;;;;;5.08;77.13;101334.56;4875395;29;1926;-94
2022/11/26 00:36:02;;;;;;;;;;;;;;;5.09;77.21;101330.03;4881373;29;2000;-94
2022/11/26 00:38:32;;;;;;;;;;;;;;;5.07;77.26;101334.75;4865175;29;1178;-95
2022/11/26 00:40:59;;;;;;;;;;;;;;;5.00;77.38;101329.22;4882273;29;1253;-95
2022/11/26 00:43:26;;;;;;;;;;;;;;;5.01;77.17;101333.56;4864788;29;1251;-94
2022/11/26 00:45:53;;;;;;;;;;;;;;;5.10;77.09;101337.91;4867251;29;1623;-95
2022/11/26 00:48:20;;;;;;;;;;;;;;;5.08;77.20;101336.41;4884261;29;1224;-94
2022/11/26 00:50:47;;;;;;;;;;;;;;;5.10;76.90;101331.75;4891467;29;1143;-95
2022/11/26 00:53:16;;;;;;;;;;;;;;;5.02;77.44;101335.22;4863309;29;1755;-95
2022/11/26 00:55:43;;;;;;;;;;;;;;;5.02;77.41;101329.88;4863295;29;1896;-96
2022/11/26 00:58:10;;;;;;;;;;;;;;;4.94;77.72;101329.84;4874163;29;1455;-94
2022/11/26 01:00:36;;;;;;;;;;;;;;;4.99;77.33;101338.22;4889564;29;1600;-96
2022/11/26 01:03:03;;;;;;;;;;;;;;;4.93;77.54;101330.88;4876571;29;1483;-93
2022/11/26 01:05:32;;;;;;;;;;;;;;;5.04;77.17;101335.91;4859922;29;1947;-92
2022/11/26 01:07:59;;;;;;;;;;;;;;;5.02;77.32;101335.22;4877314;29;1938;-93
2022/11/26 01:10:25;;;;;;;;;;;;;;;5.00;77.43;101337.25;4870750;29;1689;-95
2022/11/26 01:12:52;;;;;;;;;;;;;;;4.92;77.54;101330.03;4869542;29;1873;-94
2022/11/26 01:15:19;;;;;;;;;;;;;;;4.99;77.24;101333.72;4871560;29;2216;-93
2022/11/26 01:17:45;;;;;;;;;;;;;;;5.08;77.19;101331.88;4862837;29;2835;-93
2022/11/26 01:20:12;;;;;;;;;;;;;;;4.96;77.36;101331.38;4865071;29;4401;-95
2022/11/26 01:22:39;;;;;;;;;;;;;;;4.88;77.68;101336.72;4862276;29;4193;-93
2022/11/26 01:25:05;;;;;;;;;;;;;;;4.89;77.69;101333.03;4868778;29;2333;-95
2022/11/26 01:27:32;;;;;;;;;;;;;;;4.92;77.64;101335.38;4865501;29;3359;-93
2022/11/26 01:29:59;;;;;;;;;;;;;;;4.89;77.63;101334.88;4863931;29;2164;-93
2022/11/26 01:32:26;;;;;;;;;;;;;;;4.89;77.70;101326.88;4866322;29;2219;-93
2022/11/26 01:34:53;;;;;;;;;;;;;;;4.88;77.86;101338.53;4870180;29;4417;-93
2022/11/26 01:37:20;;;;;;;;;;;;;;;4.89;77.75;101329.53;4877266;29;2257;-93
2022/11/26 01:39:47;;;;;;;;;;;;;;;4.83;77.70;101327.53;4867940;29;4017;-93
2022/11/26 01:42:14;;;;;;;;;;;;;;;4.85;77.79;101318.31;4862122;29;4604;-93
2022/11/26 01:44:40;;;;;;;;;;;;;;;4.91;77.63;101324.84;4876555;29;4314;-93
2022/11/26 01:47:07;;;;;;;;;;;;;;;4.84;77.76;101322.00;4850664;29;2123;-94
2022/11/26 01:49:33;;;;;;;;;;;;;;;4.81;78.05;101322.31;4843291;29;4720;-93
2022/11/26 01:52:00;;;;;;;;;;;;;;;4.82;78.03;101315.97;4845452;29;4160;-93
2022/11/26 01:54:27;;;;;;;;;;;;;;;4.88;77.78;101320.69;4848903;29;4600;-94
2022/11/26 01:56:54;;;;;;;;;;;;;;;4.84;77.70;101315.84;4870714;29;4523;-93
2022/11/26 01:59:21;;;;;;;;;;;;;;;4.78;78.06;101328.81;4873251;29;2366;-94
2022/11/26 02:01:48;;;;;;;;;;;;;;;4.82;77.87;101328.50;4858326;29;2974;-93
2022/11/26 02:04:26;;;;;;;;;;;;;;;4.79;77.94;101329.66;4876223;29;4397;-94
2022/11/26 02:06:54;;;;;;;;;;;;;;;4.84;77.88;101327.34;4855622;29;4111;-94
2022/11/26 02:09:22;;;;;;;;;;;;;;;4.77;78.12;101319.16;4865467;29;3538;-94
2022/11/26 02:11:51;;;;;;;;;;;;;;;4.83;77.87;101316.84;4857452;29;3373;-94
2022/11/26 02:14:20;;;;;;;;;;;;;;;4.85;77.89;101322.84;4874011;29;3629;-93
2022/11/26 02:16:48;;;;;;;;;;;;;;;4.83;77.78;101319.50;4856746;29;2516;-93
2022/11/26 02:19:15;;;;;;;;;;;;;;;4.81;77.94;101329.50;4873873;29;2406;-93
2022/11/26 02:21:49;;;;;;;;;;;;;;;4.77;78.12;101326.34;4879186;29;3374;-95
2022/11/26 02:24:41;;;;;;;;;;;;;;;4.73;78.17;101322.31;4873452;29;2367;-93
2022/11/26 02:27:09;;;;;;;;;;;;;;;4.73;78.27;101327.63;4858490;29;4335;-93
2022/11/26 02:29:41;;;;;;;;;;;;;;;4.76;78.07;101329.97;4891104;29;2242;-94
2022/11/26 02:32:08;;;;;;;;;;;;;;;4.78;78.22;101322.66;4868349;29;4366;-92
2022/11/26 02:34:35;;;;;;;;;;;;;;;4.76;78.12;101333.50;4846401;29;4390;-92
2022/11/26 02:37:02;;;;;;;;;;;;;;;4.75;78.17;101331.00;4851852;29;4405;-93
2022/11/26 02:39:32;;;;;;;;;;;;;;;4.73;78.43;101338.31;4849301;29;4118;-93
2022/11/26 02:42:01;;;;;;;;;;;;;;;4.74;78.23;101340.84;4855560;29;4472;-93
2022/11/26 02:44:28;;;;;;;;;;;;;;;4.75;78.16;101341.66;4860336;29;3346;-94
2022/11/26 02:46:59;;;;;;;;;;;;;;;4.76;78.12;101346.84;4859428;29;2324;-93
2022/11/26 02:49:26;;;;;;;;;;;;;;;4.78;77.86;101347.50;4878770;29;2419;-93
2022/11/26 02:51:54;;;;;;;;;;;;;;;4.80;77.82;101343.88;4849344;29;4303;-93
2022/11/26 02:54:21;;;;;;;;;;;;;;;4.80;77.89;101349.19;4854607;29;2276;-94
2022/11/26 02:56:50;;;;;;;;;;;;;;;4.81;77.90;101358.88;4858151;29;4444;-93
2022/11/26 02:59:19;;;;;;;;;;;;;;;4.89;77.61;101349.06;4871848;29;4103;-94
2022/11/26 03:01:52;;;;;;;;;;;;;;;4.84;77.49;101354.03;4872905;29;2449;-93
2022/11/26 03:04:24;;;;;;;;;;;;;;;4.84;77.53;101345.19;4889539;29;2344;-94
2022/11/26 03:06:51;;;;;;;;;;;;;;;4.89;77.38;101357.06;4859619;29;1829;-94
2022/11/26 03:09:19;;;;;;;;;;;;;;;4.84;77.66;101340.69;4874798;29;3201;-93
2022/11/26 03:11:49;;;;;;;;;;;;;;;4.81;77.72;101349.03;4875175;29;1799;-93
2022/11/26 03:14:18;;;;;;;;;;;;;;;4.91;77.30;101348.88;4873079;29;2190;-93
2022/11/26 03:16:51;;;;;;;;;;;;;;;4.90;77.35;101344.53;4880879;29;2352;-94
2022/11/26 03:19:18;;;;;;;;;;;;;;;4.89;77.49;101348.22;4868745;29;2235;-93
2022/11/26 03:21:45;;;;;;;;;;;;;;;4.86;77.59;101349.38;4884260;29;4460;-93
2022/11/26 03:24:12;;;;;;;;;;;;;;;4.87;77.57;101347.53;4853741;29;1788;-94
2022/11/26 03:26:40;;;;;;;;;;;;;;;4.90;77.41;101349.88;4857725;29;2432;-93
2022/11/26 03:29:09;;;;;;;;;;;;;;;4.87;77.58;101355.53;4884677;29;3521;-93
2022/11/26 03:31:37;;;;;;;;;;;;;;;4.87;77.60;101353.72;4859603;29;1780;-95
2022/11/26 03:34:07;;;;;;;;;;;;;;;4.87;77.68;101358.22;4856182;29;2138;-94
2022/11/26 03:39:20;;;;;;;;;;;;;;;4.95;77.29;101364.41;4861692;29;2771;-94
2022/11/26 03:41:50;;;;;;;;;;;;;;;4.88;77.59;101363.41;4895090;29;1905;-94
2022/11/26 03:44:24;;;;;;;;;;;;;;;4.89;77.68;101358.91;4873619;29;3391;-94
2022/11/26 03:52:21;;;;;;;;;;;;;;;4.93;77.45;101358.38;4861351;29;2028;-94
2022/11/26 03:54:53;;;;;;;;;;;;;;;4.92;77.54;101362.06;4880765;29;1990;-94
2022/11/26 03:57:32;;;;;;;;;;;;;;;4.94;77.47;101367.22;4883438;29;1891;-96
2022/11/26 04:00:22;;;;;;;;;;;;;;;4.94;77.47;101369.91;4893280;29;1790;-94
2022/11/26 04:05:47;;;;;;;;;;;;;;;4.97;77.35;101381.13;4863147;29;1832;-93
2022/11/26 04:08:15;;;;;;;;;;;;;;;4.98;77.31;101382.78;4891312;29;4590;-94
2022/11/26 04:10:56;;;;;;;;;;;;;;;4.97;77.43;101374.91;4871078;29;2357;-93
2022/11/26 04:13:41;;;;;;;;;;;;;;;4.95;77.51;101384.94;4879394;29;1570;-95
2022/11/26 04:16:23;;;;;;;;;;;;;;;4.98;77.35;101387.28;4858975;29;2127;-93
2022/11/26 04:24:28;;;;;;;;;;;;;;;4.98;77.39;101387.28;4881155;29;2560;-94
2022/11/26 04:27:27;;;;;;;;;;;;;;;4.99;77.29;101386.28;4877474;29;2020;-94
2022/11/26 04:29:57;;;;;;;;;;;;;;;4.98;77.38;101385.44;4891623;29;1707;-94
2022/11/26 04:32:29;;;;;;;;;;;;;;;4.98;77.33;101384.63;4852640;29;1608;-96
2022/11/26 04:35:31;;;;;;;;;;;;;;;5.00;77.29;101394.13;4871939;29;2306;-94
2022/11/26 04:38:08;;;;;;;;;;;;;;;5.00;77.44;101396.81;4855218;29;1986;-93
2022/11/26 04:40:42;;;;;;;;;;;;;;;4.99;77.29;101403.13;4850015;29;2235;-92
2022/11/26 04:43:10;;;;;;;;;;;;;;;4.97;77.36;101394.47;4840184;29;4166;-93
2022/11/26 04:45:38;;;;;;;;;;;;;;;5.02;77.22;101404.63;4841305;29;4573;-92
2022/11/26 04:48:04;;;;;;;;;;;;;;;4.98;77.38;101404.13;4847798;29;4494;-92
2022/11/26 04:50:31;;;;;;;;;;;;;;;4.98;77.55;101404.13;4847990;29;4484;-88
2022/11/26 04:52:57;;;;;;;;;;;;;;;4.98;77.42;101397.97;4841634;29;4524;-87
2022/11/26 04:55:24;;;;;;;;;;;;;;;5.00;77.39;101399.47;4838392;29;4568;-86
2022/11/26 04:57:50;;;;;;;;;;;;;;;5.05;77.34;101398.97;4849401;29;4510;-86
2022/11/26 05:00:17;;;;;;;;;;;;;;;5.04;77.24;101399.97;4846980;29;4475;-85
2022/11/26 05:02:43;;;;;;;;;;;;;;;5.04;77.02;101412.50;4846266;29;4393;-85
2022/11/26 05:05:10;;;;;;;;;;;;;;;5.00;77.37;101404.81;4843100;29;4337;-84
2022/11/26 05:07:37;;;;;;;;;;;;;;;5.03;77.18;101395.66;4841038;29;4483;-85
2022/11/26 05:10:03;;;;;;;;;;;;;;;5.06;77.26;101403.34;4830937;29;4477;-84
2022/11/26 05:12:30;;;;;;;;;;;;;;;5.07;77.22;101401.50;4828756;29;4487;-85
2022/11/26 05:14:56;;;;;;;;;;;;;;;5.00;77.22;101403.97;4845130;29;4690;-86
2022/11/26 05:17:23;;;;;;;;;;;;;;;5.02;77.21;101407.31;4841860;29;4428;-87
2022/11/26 05:19:49;;;;;;;;;;;;;;;4.98;77.37;101420.16;4841698;29;4610;-85
2022/11/26 05:22:16;;;;;;;;;;;;;;;5.00;77.28;101415.50;4847801;29;4702;-88
2022/11/26 05:24:42;;;;;;;;;;;;;;;4.99;77.56;101415.66;4845539;29;4487;-88
2022/11/26 05:27:09;;;;;;;;;;;;;;;4.97;77.50;101417.63;4827833;29;4481;-87
2022/11/26 05:29:36;;;;;;;;;;;;;;;5.02;77.46;101423.31;4828104;29;4433;-87
2022/11/26 05:32:02;;;;;;;;;;;;;;;5.05;77.37;101430.19;4829321;29;4422;-88
2022/11/26 05:34:29;;;;;;;;;;;;;;;5.03;77.33;101426.81;4835313;29;4524;-85
2022/11/26 05:36:55;;;;;;;;;;;;;;;5.02;77.21;101423.31;4840831;29;4499;-84
2022/11/26 05:39:22;;;;;;;;;;;;;;;5.03;77.13;101422.34;4841996;29;4488;-84
2022/11/26 05:41:48;;;;;;;;;;;;;;;5.08;77.19;101417.34;4843950;29;4469;-86
2022/11/26 05:44:15;;;;;;;;;;;;;;;5.03;77.16;101427.69;4827463;29;4432;-84
2022/11/26 05:46:42;;;;;;;;;;;;;;;5.06;77.02;101422.03;4849583;29;4242;-83
2022/11/26 05:49:08;;;;;;;;;;;;;;;5.05;77.14;101424.84;4855516;29;4466;-86
2022/11/26 05:51:35;;;;;;;;;;;;;;;5.05;77.22;101425.66;4858933;29;4434;-86
2022/11/26 05:54:01;;;;;;;;;;;;;;;5.05;77.11;101435.53;4848031;29;4726;-85
2022/11/26 05:56:28;;;;;;;;;;;;;;;5.00;77.46;101428.84;4847548;29;4528;-86
2022/11/26 05:58:54;;;;;;;;;;;;;;;4.98;77.41;101428.16;4843820;29;4508;-87
2022/11/26 06:01:21;;;;;;;;;;;;;;;5.00;77.39;101434.19;4846973;29;4655;-86
2022/11/26 06:03:47;;;;;;;;;;;;;;;4.98;77.25;101436.16;4842799;29;4491;-87
2022/11/26 06:06:14;;;;;;;;;;;;;;;4.99;77.58;101429.00;4845261;29;4479;-87
2022/11/26 06:08:40;;;;;;;;;;;;;;;4.95;77.45;101417.81;4846924;29;4491;-87
2022/11/26 06:11:07;;;;;;;;;;;;;;;4.99;77.34;101418.31;4845674;29;5022;-86
2022/11/26 06:13:33;;;;;;;;;;;;;;;4.99;77.30;101412.97;4850606;29;4284;-86
2022/11/26 06:16:00;;;;;;;;;;;;;;;4.98;77.45;101424.66;4845520;29;4453;-86
2022/11/26 06:18:27;;;;;;;;;;;;;;;4.98;77.50;101414.81;4834070;29;4828;-86
2022/11/26 06:20:53;;;;;;;;;;;;;;;5.00;77.35;101412.00;4840683;29;4476;-85
2022/11/26 06:23:20;;;;;;;;;;;;;;;4.98;77.60;101422.00;4848212;29;4523;-85
2022/11/26 06:25:47;;;;;;;;;;;;;;;4.99;77.29;101429.00;4847426;29;4523;-86
2022/11/26 06:28:13;;;;;;;;;;;;;;;4.98;77.27;101432.66;4845315;29;4769;-86
2022/11/26 06:30:40;;;;;;;;;;;;;;;4.98;77.36;101440.69;4841892;29;4485;-86
2022/11/26 06:33:06;;;;;;;;;;;;;;;5.00;77.26;101449.38;4847607;29;4623;-86
2022/11/26 06:35:33;;;;;;;;;;;;;;;5.02;77.17;101450.03;4844047;29;4671;-85
2022/11/26 06:37:59;;;;;;;;;;;;;;;4.99;77.34;101447.69;4849673;29;4918;-86
2022/11/26 06:40:26;;;;;;;;;;;;;;;4.99;77.37;101458.34;4843925;29;4274;-85
2022/11/26 06:42:53;;;;;;;;;;;;;;;5.00;77.33;101460.06;4843011;29;4420;-86
2022/11/26 06:45:19;;;;;;;;;;;;;;;5.02;77.27;101460.72;4840486;29;4708;-86
2022/11/26 06:47:46;;;;;;;;;;;;;;;4.97;77.44;101461.22;4851256;29;4425;-85
2022/11/26 06:50:12;;;;;;;;;;;;;;;4.96;77.40;101461.34;4849065;29;4463;-85
2022/11/26 06:52:39;;;;;;;;;;;;;;;4.99;77.19;101466.38;4827129;29;4370;-85
2022/11/26 06:55:05;;;;;;;;;;;;;;;4.97;77.44;101466.53;4849202;29;4480;-85
2022/11/26 06:57:32;;;;;;;;;;;;;;;4.99;77.38;101463.69;4849031;29;4445;-85
2022/11/26 06:59:58;;;;;;;;;;;;;;;4.98;77.33;101478.06;4853049;29;4401;-85
2022/11/26 07:02:24;;;;;;;;;;;;;;;4.97;77.34;101471.88;4849060;29;4351;-84
2022/11/26 07:04:51;;;;;;;;;;;;;;;4.94;77.58;101477.53;4848746;29;4643;-85
2022/11/26 07:07:17;;;;;;;;;;;;;;;4.95;77.42;101471.19;4830947;29;4844;-84
2022/11/26 07:09:44;;;;;;;;;;;;;;;4.94;77.44;101477.53;4816188;29;4363;-85
2022/11/26 07:12:10;;;;;;;;;;;;;;;4.95;77.34;101484.56;4835127;29;4629;-84
2022/11/26 07:14:37;;;;;;;;;;;;;;;4.95;77.67;101491.72;4846249;29;3960;-84
2022/11/26 07:17:03;;;;;;;;;;;;;;;4.94;77.49;101493.56;4842747;29;4347;-84
2022/11/26 07:19:29;;;;;;;;;;;;;;;5.04;77.21;101492.59;4846531;29;4502;-85
2022/11/26 07:21:56;;;;;;;;;;;;;;;5.00;77.23;101490.25;4842364;29;4572;-85
2022/11/26 07:24:22;;;;;;;;;;;;;;;4.95;77.38;101492.56;4827090;29;4068;-84
2022/11/26 07:26:49;;;;;;;;;;;;;;;4.97;77.46;101489.72;4836532;29;4664;-85
2022/11/26 07:29:16;;;;;;;;;;;;;;;4.94;77.56;101490.03;4826460;29;4699;-84
2022/11/26 07:31:42;;;;;;;;;;;;;;;4.95;77.42;101491.72;4827572;29;4452;-84
2022/11/26 07:34:09;;;;;;;;;;;;;;;4.95;77.50;101486.38;4841762;29;4471;-83
2022/11/26 07:36:41;;;;;;;;;;;;;;;4.92;77.65;101489.38;4839470;29;4596;-85
2022/11/26 07:39:08;;;;;;;;;;;;;;;4.95;77.33;101494.41;4842467;29;4552;-83
2022/11/26 07:41:34;;;;;;;;;;;;;;;4.97;77.27;101495.91;4822553;29;4593;-84
2022/11/26 07:44:01;;;;;;;;;;;;;;;4.95;77.53;101505.06;4843383;29;4576;-84
2022/11/26 07:46:30;;;;;;;;;;;;;;;4.97;77.51;101495.06;4839411;29;4679;-84
2022/11/26 07:48:56;;;;;;;;;;;;;;;4.97;77.08;101495.06;4840756;29;4327;-86
2022/11/26 07:51:23;;;;;;;;;;;;;;;4.94;77.53;101500.72;4839867;29;4604;-86
2022/11/26 07:53:50;;;;;;;;;;;;;;;4.95;77.38;101500.56;4826581;29;4436;-86
2022/11/26 07:56:17;;;;;;;;;;;;;;;4.93;77.57;101504.38;4838095;29;4318;-85
2022/11/26 07:58:43;;;;;;;;;;;;;;;4.91;77.61;101501.91;4825879;29;4072;-86
2022/11/26 08:01:10;;;;;;;;;;;;;;;4.89;77.63;101501.22;4824809;29;4092;-85
2022/11/26 08:03:36;;;;;;;;;;;;;;;4.92;77.54;101500.06;4843361;29;3967;-87
2022/11/26 08:06:03;;;;;;;;;;;;;;;4.95;77.56;101494.41;4824303;29;4414;-85
2022/11/26 08:08:29;;;;;;;;;;;;;;;4.92;77.44;101498.22;4855128;29;4262;-85
2022/11/26 08:10:55;;;;;;;;;;;;;;;4.90;77.65;101491.38;4839579;29;4340;-86
2022/11/26 08:13:22;;;;;;;;;;;;;;;4.90;77.56;101494.88;4838429;29;4622;-85
2022/11/26 08:15:48;;;;;;;;;;;;;;;4.90;77.62;101502.03;4837699;29;4525;-85
2022/11/26 08:18:15;;;;;;;;;;;;;;;4.91;77.58;101499.22;4841125;29;4504;-85
2022/11/26 08:20:41;;;;;;;;;;;;;;;4.89;77.61;101513.72;4840408;29;4419;-86
2022/11/26 08:23:08;;;;;;;;;;;;;;;4.94;77.33;101514.06;4840638;29;4590;-85
2022/11/26 08:25:34;;;;;;;;;;;;;;;4.90;77.55;101521.56;4840206;29;4626;-85
2022/11/26 08:28:01;;;;;;;;;;;;;;;4.90;77.54;101528.72;4838413;29;4458;-89
2022/11/26 08:30:28;;;;;;;;;;;;;;;4.90;77.45;101524.22;4816899;29;4388;-87
2022/11/26 08:32:54;;;;;;;;;;;;;;;4.89;77.60;101527.91;4833616;29;4460;-86
2022/11/26 08:35:21;;;;;;;;;;;;;;;4.90;77.55;101523.41;4830471;29;4486;-86
2022/11/26 08:37:47;;;;;;;;;;;;;;;4.89;77.89;101527.06;4832910;29;4455;-85
2022/11/26 08:40:14;;;;;;;;;;;;;;;4.88;77.64;101533.38;4842313;29;4478;-87
2022/11/26 08:42:40;;;;;;;;;;;;;;;4.88;77.76;101533.38;4816150;29;4734;-82
2022/11/26 08:45:07;;;;;;;;;;;;;;;4.89;77.78;101543.09;4829923;29;4541;-84
2022/11/26 08:47:34;;;;;;;;;;;;;;;4.89;77.57;101533.25;4832284;29;4323;-82
2022/11/26 08:50:00;;;;;;;;;;;;;;;4.90;77.58;101534.06;4832031;29;4466;-84
2022/11/26 08:52:27;;;;;;;;;;;;;;;4.90;77.66;101542.09;4830193;29;4641;-84
2022/11/26 08:54:53;;;;;;;;;;;;;;;4.91;77.42;101538.41;4811925;29;4611;-82
2022/11/26 08:57:20;;;;;;;;;;;;;;;4.87;77.52;101534.41;4820531;29;4488;-82
2022/11/26 08:59:46;;;;;;;;;;;;;;;4.90;77.52;101540.25;4832446;29;4564;-82
2022/11/26 09:02:13;;;;;;;;;;;;;;;4.89;77.50;101538.59;4830139;29;4534;-82
2022/11/26 09:04:40;;;;;;;;;;;;;;;4.87;77.62;101543.22;4815367;29;4690;-83
2022/11/26 09:07:07;;;;;;;;;;;;;;;4.87;77.72;101543.22;4830778;29;5035;-82
2022/11/26 09:09:33;;;;;;;;;;;;;;;4.85;77.75;101541.72;4830167;29;4478;-84
2022/11/26 09:12:00;;;;;;;;;;;;;;;4.90;77.64;101542.09;4812592;29;4472;-84
2022/11/26 09:14:27;;;;;;;;;;;;;;;4.89;77.49;101551.09;4828718;29;4600;-83
2022/11/26 09:16:54;;;;;;;;;;;;;;;4.86;77.65;101541.56;4832283;29;4491;-84
2022/11/26 09:19:20;;;;;;;;;;;;;;;4.86;77.49;101548.75;4813623;29;4416;-83
2022/11/26 09:21:47;;;;;;;;;;;;;;;4.85;77.90;101550.56;4814470;29;4629;-83
2022/11/26 09:24:13;;;;;;;;;;;;;;;4.85;77.74;101553.22;4812724;29;4510;-83
2022/11/26 09:26:40;;;;;;;;;;;;;;;4.89;77.58;101561.78;4830599;29;4691;-83
2022/11/26 09:29:06;;;;;;;;;;;;;;;4.85;77.82;101566.56;4814901;29;4940;-83
2022/11/26 09:31:33;;;;;;;;;;;;;;;4.84;77.75;101575.59;4815090;29;4798;-82
2022/11/26 09:33:59;;;;;;;;;;;;;;;4.85;77.92;101573.75;4831058;29;4109;-85
2022/11/26 09:36:26;;;;;;;;;;;;;;;4.85;77.71;101579.09;4830005;29;4713;-83
2022/11/26 09:38:52;;;;;;;;;;;;;;;4.85;77.71;101576.41;4839962;29;4533;-84
2022/11/26 09:41:19;;;;;;;;;;;;;;;4.88;77.59;101581.44;4833558;29;4583;-85
2022/11/26 09:43:46;;;;;;;;;;;;;;;4.86;77.68;101575.44;4831159;29;4511;-87
2022/11/26 09:46:13;;;;;;;;;;;;;;;4.86;77.43;101578.09;4814167;29;4484;-87
2022/11/26 09:48:39;;;;;;;;;;;;;;;4.84;77.65;101578.25;4816775;29;4246;-85
2022/11/26 09:51:06;;;;;;;;;;;;;;;4.88;77.74;101581.44;4819627;29;4795;-86
2022/11/26 09:53:32;;;;;;;;;;;;;;;4.89;77.51;101583.13;4838291;29;4589;-84
2022/11/26 09:55:59;;;;;;;;;;;;;;;4.85;77.63;101581.75;4818274;29;4615;-83
2022/11/26 09:58:25;;;;;;;;;;;;;;;4.85;77.84;101582.59;4820893;29;4644;-83
2022/11/26 10:00:52;;;;;;;;;;;;;;;4.85;77.68;101579.09;4835633;29;4595;-85
2022/11/26 10:03:19;;;;;;;;;;;;;;;4.82;77.67;101577.56;4833806;29;4511;-84
2022/11/26 10:05:46;;;;;;;;;;;;;;;4.82;77.67;101588.25;4827489;29;4564;-86
2022/11/26 10:08:13;;;;;;;;;;;;;;;4.81;77.81;101585.75;4811633;29;4707;-86
2022/11/26 10:10:40;;;;;;;;;;;;;;;4.84;77.70;101583.59;4827974;29;4559;-84
2022/11/26 10:13:06;;;;;;;;;;;;;;;4.82;77.82;101588.25;4830922;29;4725;-84
2022/11/26 10:15:33;;;;;;;;;;;;;;;4.82;77.89;101590.06;4840423;29;4703;-84
2022/11/26 10:18:00;;;;;;;;;;;;;;;4.85;77.56;101593.25;4830970;29;4809;-84
2022/11/26 10:20:26;;;;;;;;;;;;;;;4.83;77.45;101597.94;4816312;29;4590;-84
2022/11/26 10:22:53;;;;;;;;;;;;;;;4.89;77.50;101597.31;4851526;29;4583;-84
2022/11/26 10:25:19;;;;;;;;;;;;;;;4.85;77.56;101595.94;4835070;29;4590;-84
2022/11/26 10:27:46;;;;;;;;;;;;;;;4.83;77.62;101592.59;4820055;29;4673;-84
2022/11/26 10:30:12;;;;;;;;;;;;;;;4.89;77.63;101599.16;4836035;29;4475;-84
2022/11/26 10:32:39;;;;;;;;;;;;;;;4.84;77.65;101598.78;4836929;29;4552;-84
2022/11/26 10:35:05;;;;;;;;;;;;;;;4.82;77.63;101596.25;4835496;29;4576;-83
2022/11/26 10:37:32;;;;;;;;;;;;;;;4.85;77.69;101590.59;4829241;29;4583;-83
2022/11/26 10:39:59;;;;;;;;;;;;;;;4.83;77.77;101595.28;4827071;29;4605;-87
2022/11/26 10:42:25;;;;;;;;;;;;;;;4.82;77.70;101595.41;4818373;29;4536;-85
2022/11/26 10:44:52;;;;;;;;;;;;;;;4.83;77.74;101594.44;4813143;29;4570;-85
2022/11/26 10:47:20;;;;;;;;;;;;;;;4.81;77.74;101597.25;4815676;29;4542;-87
2022/11/26 10:49:47;;;;;;;;;;;;;;;4.82;77.70;101596.25;4829614;29;4623;-86
2022/11/26 10:52:13;;;;;;;;;;;;;;;4.84;77.60;101596.09;4768904;29;1345509;-84
2022/11/26 10:57:30;;;;;;;;;;;;;;;4.84;77.74;101604.94;4799923;29;4640;-87
2022/11/26 10:59:57;;;;;;;;;;;;;;;4.82;77.65;101608.75;4817897;29;4592;-86
2022/11/26 11:02:24;;;;;;;;;;;;;;;4.80;77.91;101611.59;4803376;29;4631;-86
2022/11/26 11:04:50;;;;;;;;;;;;;;;4.83;77.72;101602.44;4820792;29;4760;-88
2022/11/26 11:07:17;;;;;;;;;;;;;;;4.78;77.83;101609.06;4815375;29;4653;-88
2022/11/26 11:09:44;;;;;;;;;;;;;;;4.82;77.78;101608.75;4798501;29;4474;-88
2022/11/26 11:12:10;;;;;;;;;;;;;;;4.80;77.66;101610.78;4812983;29;4551;-87
2022/11/26 11:14:37;;;;;;;;;;;;;;;4.82;77.93;101612.25;4815806;29;4532;-88
2022/11/26 11:17:03;;;;;;;;;;;;;;;4.79;77.95;101615.25;4816988;29;4531;-89
2022/11/26 11:19:30;;;;;;;;;;;;;;;4.79;77.85;101617.91;4814841;29;4604;-88
2022/11/26 11:21:57;;;;;;;;;;;;;;;4.83;77.86;101621.13;4800057;29;4522;-89
2022/11/26 11:24:24;;;;;;;;;;;;;;;4.81;77.84;101615.09;4816689;29;4516;-89
2022/11/26 11:26:52;;;;;;;;;;;;;;;4.81;77.74;101620.44;4798040;29;4642;-88
2022/11/26 11:29:18;;;;;;;;;;;;;;;4.81;78.09;101617.78;4815181;29;4801;-88
2022/11/26 11:31:45;;;;;;;;;;;;;;;4.83;77.66;101613.13;4817061;29;4864;-86
2022/11/26 11:34:12;;;;;;;;;;;;;;;4.81;77.93;101623.13;4815208;29;4530;-86
2022/11/26 11:36:38;;;;;;;;;;;;;;;4.80;77.84;101624.13;4811268;29;4457;-85
2022/11/26 11:39:04;;;;;;;;;;;;;;;4.80;77.71;101619.59;4798148;29;4644;-86
2022/11/26 11:41:31;;;;;;;;;;;;;;;4.80;77.85;101618.78;4811573;29;4550;-86
2022/11/26 11:43:57;;;;;;;;;;;;;;;4.81;77.85;101626.63;4805146;29;4673;-86
2022/11/26 11:46:24;;;;;;;;;;;;;;;4.82;77.85;101633.63;4822934;29;4781;-86
2022/11/26 11:48:51;;;;;;;;;;;;;;;4.82;77.67;101630.13;4807473;29;4604;-87
2022/11/26 11:51:18;;;;;;;;;;;;;;;4.81;77.73;101631.13;4825290;29;4506;-86
2022/11/26 11:53:49;;;;;;;;;;;;;;;4.80;77.91;101632.13;4838937;29;4514;-86
2022/11/26 11:56:15;;;;;;;;;;;;;;;4.80;77.78;101632.13;4828088;29;4692;-84
2022/11/26 11:58:42;;;;;;;;;;;;;;;4.80;77.81;101635.63;4837721;29;4527;-85
2022/11/26 12:01:08;;;;;;;;;;;;;;;4.80;77.78;101632.97;4823785;29;4578;-84
2022/11/26 12:03:35;;;;;;;;;;;;;;;4.82;77.79;101638.97;4843420;29;4690;-84
2022/11/26 12:06:01;;;;;;;;;;;;;;;4.84;77.62;101633.47;4824556;29;4700;-85
2022/11/26 12:08:28;;;;;;;;;;;;;;;4.80;77.81;101632.97;4838669;29;4688;-84
2022/11/26 12:10:54;;;;;;;;;;;;;;;4.78;77.74;101630.44;4835235;29;4664;-84
2022/11/26 12:13:21;;;;;;;;;;;;;;;4.79;77.86;101636.59;4816322;29;4712;-85
2022/11/26 12:15:50;;;;;;;;;;;;;;;4.77;77.86;101631.44;4815362;29;4698;-85
2022/11/26 12:18:16;;;;;;;;;;;;;;;4.83;77.91;101631.81;4831089;29;4676;-85
2022/11/26 12:20:44;;;;;;;;;;;;;;;4.79;77.76;101628.59;4833221;29;4676;-84
2022/11/26 12:23:12;;;;;;;;;;;;;;;4.79;77.92;101623.25;4833401;29;4725;-84
2022/11/26 12:25:38;;;;;;;;;;;;;;;4.84;77.72;101625.47;4812686;29;4355;-84
2022/11/26 12:28:05;;;;;;;;;;;;;;;4.78;77.89;101625.09;4834661;29;4643;-84
2022/11/26 12:30:32;;;;;;;;;;;;;;;4.79;77.91;101617.91;4833811;29;4286;-85
2022/11/26 12:32:59;;;;;;;;;;;;;;;4.79;77.89;101625.91;4816852;29;4655;-85
2022/11/26 12:35:25;;;;;;;;;;;;;;;4.81;77.87;101626.63;4831648;29;4592;-87
2022/11/26 12:37:52;;;;;;;;;;;;;;;4.80;77.87;101635.63;4815350;29;4602;-85
2022/11/26 12:40:18;;;;;;;;;;;;;;;4.79;77.75;101628.59;4814198;29;4729;-87
2022/11/26 12:42:45;;;;;;;;;;;;;;;4.78;77.86;101635.75;4832700;29;4662;-87
2022/11/26 12:45:11;;;;;;;;;;;;;;;4.81;77.78;101637.28;4816261;29;4753;-87
2022/11/26 12:47:38;;;;;;;;;;;;;;;4.82;77.75;101630.13;4834386;29;4591;-87
2022/11/26 12:50:05;;;;;;;;;;;;;;;4.80;77.81;101632.97;4816429;29;4618;-86
2022/11/26 12:52:31;;;;;;;;;;;;;;;4.81;77.96;101631.13;4832102;29;4743;-86
2022/11/26 12:54:58;;;;;;;;;;;;;;;4.78;77.95;101633.09;4830845;29;4657;-86
2022/11/26 12:57:24;;;;;;;;;;;;;;;4.78;77.84;101622.41;4839962;29;4555;-87
2022/11/26 12:59:51;;;;;;;;;;;;;;;4.78;77.93;101630.44;4838365;29;4824;-87
2022/11/26 13:02:17;;;;;;;;;;;;;;;4.80;77.86;101637.47;4831142;29;4658;-87
2022/11/26 13:04:44;;;;;;;;;;;;;;;4.79;78.08;101633.94;4839020;29;4778;-86
2022/11/26 13:07:10;;;;;;;;;;;;;;;4.78;77.66;101632.25;4839956;29;4635;-86
2022/11/26 13:09:37;;;;;;;;;;;;;;;4.80;77.92;101637.47;4819166;29;4634;-84
2022/11/26 13:12:03;;;;;;;;;;;;;;;4.79;77.60;101631.25;4830625;29;4767;-85
2022/11/26 13:14:30;;;;;;;;;;;;;;;4.78;77.73;101632.25;4821004;29;4365;-85
2022/11/26 13:16:56;;;;;;;;;;;;;;;4.78;77.86;101637.59;4840555;29;4642;-86
2022/11/26 13:19:23;;;;;;;;;;;;;;;4.81;77.87;101641.78;4852103;29;4752;-85